createdAt,value
2019-05-20T00:00:46.118Z,1.70
2019-05-20T00:03:16.289Z,1.70
2019-05-20T00:05:46.892Z,1.60
2019-05-20T00:08:17.173Z,2.22
2019-05-20T00:10:47.595Z,2.20
2019-05-20T00:13:17.763Z,2.22
2019-05-20T00:15:48.101Z,2.20
2019-05-20T00:18:18.193Z,2.15
2019-05-20T00:20:48.383Z,2.15
2019-05-20T00:23:18.477Z,2.30
2019-05-20T00:25:48.660Z,1.90
2019-05-20T00:28:18.815Z,1.90
2019-05-20T00:30:49.093Z,1.80
2019-05-20T00:33:19.315Z,2.20
2019-05-20T00:35:49.479Z,2.10
2019-05-20T00:38:19.764Z,2.00
2019-05-20T00:40:49.947Z,1.98
2019-05-20T00:43:19.845Z,1.87
2019-05-20T00:45:49.691Z,2.10
2019-05-20T00:48:19.771Z,1.80
2019-05-20T00:50:49.931Z,2.20
2019-05-20T00:53:20.092Z,2.20
2019-05-20T00:55:50.135Z,1.92
2019-05-20T00:58:20.007Z,2.22
2019-05-20T01:00:50.261Z,2.35
2019-05-20T01:03:20.231Z,2.12
2019-05-20T01:05:50.435Z,2.42
2019-05-20T01:08:20.653Z,2.27
2019-05-20T01:10:50.752Z,2.40
2019-05-20T01:13:20.968Z,2.47
2019-05-20T01:15:50.806Z,3.00
2019-05-20T01:18:20.972Z,3.10
2019-05-20T01:20:52.319Z,3.15
2019-05-20T01:23:22.246Z,2.77
2019-05-20T01:25:53.386Z,3.02
2019-05-20T01:28:42.631Z,2.92
2019-05-20T01:31:12.797Z,3.22
2019-05-20T01:33:42.644Z,3.22
2019-05-20T01:36:19.791Z,3.70
2019-05-20T01:39:09.063Z,3.00
2019-05-20T01:41:42.803Z,3.60
2019-05-20T01:44:13.030Z,3.58
2019-05-20T01:46:43.161Z,3.58
2019-05-20T01:49:13.414Z,3.20
2019-05-20T01:51:43.516Z,3.25
2019-05-20T01:54:13.708Z,3.60
2019-05-20T01:56:43.929Z,3.90
2019-05-20T01:59:13.762Z,3.92
2019-05-20T02:01:43.869Z,4.22
2019-05-20T02:04:14.097Z,4.20
2019-05-20T02:06:44.188Z,4.35
2019-05-20T02:09:14.404Z,4.60
2019-05-20T02:11:44.547Z,4.78
2019-05-20T02:14:16.394Z,5.25
2019-05-20T02:16:46.555Z,5.47
2019-05-20T02:19:16.674Z,5.28
2019-05-20T02:21:46.790Z,4.90
2019-05-20T02:24:17.013Z,4.90
2019-05-20T02:26:47.159Z,6.20
2019-05-20T02:29:17.288Z,6.47
2019-05-20T02:31:47.106Z,6.37
2019-05-20T02:34:17.365Z,6.37
2019-05-20T02:36:47.382Z,7.60
2019-05-20T02:39:17.726Z,7.50
2019-05-20T02:41:47.781Z,7.00
2019-05-20T02:44:17.977Z,7.08
2019-05-20T02:46:47.947Z,6.45
2019-05-20T02:49:18.156Z,6.87
2019-05-20T02:51:48.271Z,7.40
2019-05-20T02:54:18.130Z,7.28
2019-05-20T02:56:48.297Z,7.87
2019-05-20T02:59:18.201Z,8.58
2019-05-20T03:01:48.042Z,8.43
2019-05-20T03:04:18.126Z,8.73
2019-05-20T03:06:48.938Z,8.73
2019-05-20T03:09:19.120Z,8.93
2019-05-20T03:11:49.292Z,9.78
2019-05-20T03:14:19.464Z,8.63
2019-05-20T03:16:49.708Z,8.78
2019-05-20T03:19:19.656Z,9.50
2019-05-20T03:21:49.803Z,9.00
2019-05-20T03:24:19.723Z,8.93
2019-05-20T03:26:49.663Z,9.43
2019-05-20T03:29:19.834Z,9.50
2019-05-20T03:31:49.757Z,9.03
2019-05-20T03:34:43.282Z,9.75
2019-05-20T03:36:51.862Z,10.57
2019-05-20T03:39:21.718Z,10.58
2019-05-20T03:41:51.658Z,11.08
2019-05-20T03:44:21.752Z,10.28
2019-05-20T03:46:51.933Z,11.53
2019-05-20T03:49:22.091Z,12.13
2019-05-20T03:51:52.643Z,12.55
2019-05-20T03:54:22.575Z,10.82
2019-05-20T03:56:52.706Z,11.40
2019-05-20T03:59:22.604Z,11.93
2019-05-20T04:01:52.790Z,10.80
2019-05-20T04:04:25.225Z,11.50
2019-05-20T04:06:54.902Z,12.00
2019-05-20T04:09:25.170Z,11.38
2019-05-20T04:11:55.238Z,11.22
2019-05-20T04:14:25.456Z,11.95
2019-05-20T04:16:55.726Z,13.40
2019-05-20T04:19:25.810Z,12.50
2019-05-20T04:21:56.040Z,11.68
2019-05-20T04:24:26.264Z,13.20
2019-05-20T04:26:59.957Z,11.65
2019-05-20T04:29:30.929Z,13.18
2019-05-20T04:32:01.135Z,13.45
2019-05-20T04:34:31.801Z,13.62
2019-05-20T04:37:01.785Z,13.25
2019-05-20T04:39:32.054Z,13.50
2019-05-20T04:42:06.311Z,12.95
2019-05-20T04:44:34.132Z,13.13
2019-05-20T04:47:04.215Z,13.70
2019-05-20T04:49:34.481Z,14.43
2019-05-20T04:52:04.761Z,12.25
2019-05-20T04:54:34.929Z,13.85
2019-05-20T04:57:05.093Z,13.75
2019-05-20T04:59:34.981Z,14.68
2019-05-20T05:02:05.039Z,13.95
2019-05-20T05:04:35.235Z,13.43
2019-05-20T05:07:05.338Z,12.75
2019-05-20T05:09:35.603Z,13.65
2019-05-20T05:12:05.821Z,12.55
2019-05-20T05:14:36.119Z,13.60
2019-05-20T05:17:06.221Z,14.95
2019-05-20T05:19:36.429Z,13.90
2019-05-20T05:22:06.701Z,12.80
2019-05-20T05:24:36.686Z,12.05
2019-05-20T05:27:06.919Z,11.73
2019-05-20T05:29:37.132Z,12.60
2019-05-20T05:32:07.368Z,11.43
2019-05-20T05:34:37.391Z,12.25
2019-05-20T05:37:07.519Z,12.40
2019-05-20T05:39:37.482Z,12.00
2019-05-20T05:42:07.659Z,12.30
2019-05-20T05:44:37.797Z,11.18
2019-05-20T05:47:07.911Z,13.13
2019-05-20T05:49:38.071Z,12.63
2019-05-20T05:52:07.911Z,12.78
2019-05-20T05:54:37.866Z,12.80
2019-05-20T05:57:08.194Z,12.60
2019-05-20T05:59:38.051Z,12.85
2019-05-20T06:02:08.973Z,12.00
2019-05-20T06:04:39.173Z,12.50
2019-05-20T06:07:09.348Z,13.22
2019-05-20T06:09:39.614Z,13.05
2019-05-20T06:12:09.573Z,13.13
2019-05-20T06:14:39.785Z,13.40
2019-05-20T06:17:10.159Z,12.03
2019-05-20T06:19:42.172Z,12.50
2019-05-20T06:22:14.491Z,13.45
2019-05-20T06:24:44.322Z,12.98
2019-05-20T06:27:14.453Z,13.05
2019-05-20T06:29:44.754Z,12.33
2019-05-20T06:32:15.285Z,11.88
2019-05-20T06:34:45.634Z,13.88
2019-05-20T06:37:17.459Z,13.60
2019-05-20T06:39:47.333Z,13.83
2019-05-20T06:42:17.553Z,13.58
2019-05-20T06:44:52.894Z,13.65
2019-05-20T06:47:19.435Z,13.78
2019-05-20T06:49:49.638Z,13.90
2019-05-20T06:52:34.941Z,14.40
2019-05-20T06:57:23.923Z,44.40
2019-05-20T06:59:54.171Z,54.90
2019-05-20T07:02:24.122Z,26.85
2019-05-20T07:04:54.393Z,27.55
2019-05-20T07:07:24.613Z,31.25
2019-05-20T07:09:54.444Z,19.45
2019-05-20T07:12:40.196Z,15.00
2019-05-20T07:14:56.357Z,20.57
2019-05-20T07:17:26.272Z,15.80
2019-05-20T07:19:56.211Z,18.67
2019-05-20T07:22:26.547Z,17.48
2019-05-20T07:24:56.851Z,14.55
2019-05-20T07:27:26.806Z,15.98
2019-05-20T07:29:57.073Z,15.63
2019-05-20T07:32:27.447Z,20.65
2019-05-20T07:34:57.383Z,15.35
2019-05-20T07:37:27.763Z,15.20
2019-05-20T07:39:58.049Z,15.18
2019-05-20T07:42:28.917Z,15.45
2019-05-20T07:44:59.085Z,14.78
2019-05-20T07:47:29.302Z,14.28
2019-05-20T07:49:59.714Z,15.65
2019-05-20T07:52:33.493Z,14.50
2019-05-20T07:55:04.334Z,16.17
2019-05-20T07:57:37.235Z,14.35
2019-05-20T08:00:08.855Z,13.85
2019-05-20T08:02:39.230Z,14.15
2019-05-20T08:05:10.526Z,14.25
2019-05-20T08:07:52.473Z,13.80
2019-05-20T08:10:19.042Z,14.43
2019-05-20T08:12:49.308Z,16.42
2019-05-20T08:15:19.604Z,13.18
2019-05-20T08:17:49.922Z,13.28
2019-05-20T08:20:20.538Z,13.72
2019-05-20T08:22:51.377Z,14.03
2019-05-20T08:25:21.688Z,14.07
2019-05-20T08:27:51.703Z,14.53
2019-05-20T08:30:33.514Z,14.80
2019-05-20T08:33:04.105Z,13.90
2019-05-20T08:35:34.322Z,13.00
2019-05-20T08:38:04.472Z,15.55
2019-05-20T08:40:35.718Z,13.65
2019-05-20T08:43:05.973Z,13.32
2019-05-20T08:45:36.222Z,14.53
2019-05-20T08:48:06.376Z,12.63
2019-05-20T08:50:36.675Z,13.28
2019-05-20T08:53:06.867Z,12.63
2019-05-20T08:55:37.271Z,12.65
2019-05-20T08:58:07.516Z,12.90
2019-05-20T09:00:37.731Z,13.10
2019-05-20T09:03:08.183Z,12.85
2019-05-20T09:05:38.187Z,13.40
2019-05-20T09:08:08.538Z,13.30
2019-05-20T09:10:39.610Z,13.98
2019-05-20T09:13:10.009Z,14.13
2019-05-20T09:15:46.391Z,13.00
2019-05-20T09:18:37.067Z,11.78
2019-05-20T09:21:07.514Z,12.90
2019-05-20T09:23:37.936Z,11.90
2019-05-20T09:26:09.345Z,13.35
2019-05-20T09:28:39.629Z,14.20
2019-05-20T09:31:10.148Z,13.48
2019-05-20T09:33:40.579Z,13.53
2019-05-20T09:36:11.016Z,13.38
2019-05-20T09:38:41.337Z,13.00
2019-05-20T09:41:11.663Z,13.55
2019-05-20T09:43:41.534Z,13.00
2019-05-20T09:46:11.742Z,13.25
2019-05-20T09:48:41.799Z,14.18
2019-05-20T09:51:12.131Z,14.33
2019-05-20T09:53:42.922Z,13.20
2019-05-20T09:56:13.195Z,13.50
2019-05-20T09:58:43.616Z,14.65
2019-05-20T10:01:13.912Z,15.08
2019-05-20T10:03:44.167Z,13.72
2019-05-20T10:06:14.158Z,13.25
2019-05-20T10:08:45.327Z,14.35
2019-05-20T10:11:15.573Z,13.93
2019-05-20T10:13:45.891Z,13.83
2019-05-20T10:16:16.099Z,15.48
2019-05-20T10:18:46.516Z,15.90
2019-05-20T10:21:16.557Z,14.75
2019-05-20T10:23:47.759Z,15.45
2019-05-20T10:26:18.057Z,15.53
2019-05-20T10:28:48.275Z,15.78
2019-05-20T10:31:19.503Z,16.97
2019-05-20T10:33:49.700Z,14.33
2019-05-20T10:36:19.916Z,14.18
2019-05-20T10:38:58.696Z,14.63
2019-05-20T10:41:22.139Z,15.78
2019-05-20T10:43:52.448Z,16.50
2019-05-20T10:46:22.375Z,16.20
2019-05-20T10:48:52.444Z,16.85
2019-05-20T10:51:22.282Z,16.87
2019-05-20T10:53:52.752Z,16.40
2019-05-20T10:56:23.052Z,16.50
2019-05-20T10:58:53.043Z,16.55
2019-05-20T11:01:23.091Z,16.62
2019-05-20T11:03:53.407Z,16.77
2019-05-20T11:06:23.494Z,16.20
2019-05-20T11:08:53.781Z,14.70
2019-05-20T11:11:24.121Z,14.70
2019-05-20T11:13:54.151Z,16.65
2019-05-20T11:16:24.354Z,15.72
2019-05-20T11:18:54.653Z,16.07
2019-05-20T11:21:24.736Z,14.35
2019-05-20T11:23:54.956Z,15.20
2019-05-20T11:26:25.174Z,14.85
2019-05-20T11:28:55.478Z,16.55
2019-05-20T11:31:25.683Z,15.23
2019-05-20T11:33:57.684Z,14.43
2019-05-20T11:36:28.059Z,16.48
2019-05-20T11:38:59.278Z,16.90
2019-05-20T11:41:52.084Z,15.35
2019-05-20T11:44:01.664Z,16.42
2019-05-20T11:46:32.019Z,15.68
2019-05-20T11:49:02.483Z,18.23
2019-05-20T11:51:32.756Z,17.07
2019-05-20T11:54:03.018Z,17.42
2019-05-20T11:56:33.317Z,19.05
2019-05-20T11:59:03.548Z,16.10
2019-05-20T12:01:34.379Z,17.40
2019-05-20T12:04:04.740Z,16.85
2019-05-20T12:06:35.055Z,16.90
2019-05-20T12:09:07.106Z,16.57
2019-05-20T12:11:37.478Z,17.98
2019-05-20T12:14:07.679Z,16.25
2019-05-20T12:16:38.115Z,16.67
2019-05-20T12:19:08.113Z,17.20
2019-05-20T12:21:38.477Z,18.87
2019-05-20T12:24:08.756Z,17.73
2019-05-20T12:26:39.120Z,18.32
2019-05-20T12:29:09.388Z,17.12
2019-05-20T12:31:39.347Z,19.32
2019-05-20T12:34:09.643Z,19.20
2019-05-20T12:36:39.895Z,19.27
2019-05-20T12:39:10.170Z,19.00
2019-05-20T12:41:40.425Z,19.55
2019-05-20T12:44:12.880Z,17.82
2019-05-20T12:46:42.471Z,18.48
2019-05-20T12:49:12.815Z,20.25
2019-05-20T12:51:43.121Z,18.25
2019-05-20T12:54:13.340Z,21.25
2019-05-20T12:56:43.523Z,21.02
2019-05-20T12:59:13.923Z,20.77
2019-05-20T13:01:43.920Z,20.97
2019-05-20T13:04:14.238Z,22.05
2019-05-20T13:06:44.787Z,19.48
2019-05-20T13:09:15.115Z,20.45
2019-05-20T13:11:47.303Z,24.95
2019-05-20T13:14:17.404Z,19.52
2019-05-20T13:16:47.265Z,26.87
2019-05-20T13:19:17.588Z,32.85
2019-05-20T13:21:47.939Z,34.53
2019-05-20T13:24:18.306Z,30.37
2019-05-20T13:26:48.690Z,27.58
2019-05-20T13:29:18.720Z,31.45
2019-05-20T13:31:48.676Z,28.15
2019-05-20T13:34:18.813Z,30.48
2019-05-20T13:36:50.099Z,29.32
2019-05-20T13:39:20.160Z,29.87
2019-05-20T13:41:50.144Z,30.20
2019-05-20T13:44:20.339Z,28.32
2019-05-20T13:46:50.666Z,30.10
2019-05-20T13:49:20.846Z,27.20
2019-05-20T13:51:50.791Z,26.62
2019-05-20T13:54:21.003Z,26.50
2019-05-20T13:56:51.004Z,25.97
2019-05-20T13:59:21.905Z,27.02
2019-05-20T14:01:51.832Z,26.57
2019-05-20T14:04:21.929Z,25.23
2019-05-20T14:06:52.253Z,24.80
2019-05-20T14:09:23.517Z,24.12
2019-05-20T14:11:53.413Z,23.77
2019-05-20T14:14:23.646Z,23.77
2019-05-20T14:16:53.617Z,22.45
2019-05-20T14:19:26.012Z,23.87
2019-05-20T14:21:56.372Z,22.60
2019-05-20T14:24:26.772Z,24.92
2019-05-20T14:26:57.086Z,23.47
2019-05-20T14:29:27.462Z,23.35
2019-05-20T14:31:57.769Z,21.48
2019-05-20T14:34:27.836Z,22.45
2019-05-20T14:37:00.162Z,21.60
2019-05-20T14:39:30.564Z,22.75
2019-05-20T14:42:00.725Z,22.95
2019-05-20T14:44:30.945Z,21.30
2019-05-20T14:47:01.032Z,21.75
2019-05-20T14:49:31.143Z,22.58
2019-05-20T14:52:01.659Z,21.42
2019-05-20T14:54:32.031Z,21.37
2019-05-20T14:57:02.282Z,20.62
2019-05-20T14:59:32.541Z,19.17
2019-05-20T15:02:02.835Z,20.82
2019-05-20T15:04:33.129Z,21.25
2019-05-20T15:07:03.407Z,19.87
2019-05-20T15:09:33.794Z,21.17
2019-05-20T15:12:04.298Z,21.20
2019-05-20T15:14:34.256Z,21.00
2019-05-20T15:17:04.709Z,19.17
2019-05-20T15:19:34.873Z,20.48
2019-05-20T15:22:05.056Z,19.67
2019-05-20T15:24:35.374Z,19.30
2019-05-20T15:27:05.645Z,19.92
2019-05-20T15:29:55.246Z,20.25
2019-05-20T15:32:41.216Z,18.82
2019-05-20T15:35:11.895Z,17.77
2019-05-20T15:37:42.304Z,15.63
2019-05-20T15:40:13.209Z,14.50
2019-05-20T15:42:43.647Z,16.30
2019-05-20T15:45:16.369Z,15.25
2019-05-20T15:47:46.984Z,16.05
2019-05-20T15:50:17.748Z,15.38
2019-05-20T15:52:48.069Z,16.50
2019-05-20T15:55:18.496Z,16.15
2019-05-20T15:57:49.736Z,15.32
2019-05-20T16:00:20.097Z,14.63
2019-05-20T16:02:50.655Z,15.28
2019-05-20T16:05:20.897Z,14.30
2019-05-20T16:07:51.155Z,15.45
2019-05-20T16:10:21.415Z,15.13
2019-05-20T16:12:51.553Z,16.00
2019-05-20T16:15:21.878Z,13.62
2019-05-20T16:17:52.101Z,14.55
2019-05-20T16:20:22.532Z,15.03
2019-05-20T16:22:52.777Z,14.25
2019-05-20T16:25:23.475Z,14.87
2019-05-20T16:27:53.559Z,15.18
2019-05-20T16:30:23.970Z,15.88
2019-05-20T16:32:54.237Z,16.27
2019-05-20T16:35:25.449Z,15.03
2019-05-20T16:37:55.431Z,16.82
2019-05-20T16:40:25.724Z,15.40
2019-05-20T16:42:55.792Z,15.60
2019-05-20T16:45:26.093Z,15.45
2019-05-20T16:47:56.345Z,14.25
2019-05-20T16:50:26.739Z,15.70
2019-05-20T16:52:57.069Z,16.00
2019-05-20T16:55:27.381Z,15.85
2019-05-20T16:57:57.767Z,19.73
2019-05-20T17:00:31.893Z,22.10
2019-05-20T17:03:00.181Z,25.57
2019-05-20T17:05:30.649Z,25.68
2019-05-20T17:08:03.724Z,24.07
2019-05-20T17:10:34.715Z,26.87
2019-05-20T17:13:05.592Z,28.15
2019-05-20T17:15:35.838Z,27.13
2019-05-20T17:18:06.195Z,28.85
2019-05-20T17:20:40.337Z,27.75
2019-05-20T17:23:10.714Z,28.32
2019-05-20T17:25:40.978Z,29.45
2019-05-20T17:28:11.332Z,27.95
2019-05-20T17:30:45.324Z,27.85
2019-05-20T17:33:13.222Z,29.03
2019-05-20T17:35:43.788Z,32.50
2019-05-20T17:38:14.385Z,30.35
2019-05-20T17:40:44.742Z,33.13
2019-05-20T17:43:15.036Z,31.55
2019-05-20T17:45:45.093Z,32.98
2019-05-20T17:48:15.519Z,33.60
2019-05-20T17:50:45.643Z,33.75
2019-05-20T17:53:17.958Z,34.08
2019-05-20T17:55:48.494Z,34.90
2019-05-20T17:58:20.700Z,33.45
2019-05-20T18:00:54.711Z,35.40
2019-05-20T18:03:25.329Z,35.65
2019-05-20T18:05:55.282Z,34.70
2019-05-20T18:08:27.223Z,35.17
2019-05-20T18:10:57.535Z,36.53
2019-05-20T18:13:27.783Z,37.35
2019-05-20T18:15:58.166Z,34.78
2019-05-20T18:18:28.486Z,36.50
2019-05-20T18:20:58.677Z,37.70
2019-05-20T18:23:28.732Z,38.15
2019-05-20T18:25:58.757Z,36.77
2019-05-20T18:28:30.570Z,40.88
2019-05-20T18:31:03.410Z,36.90
2019-05-20T18:33:34.199Z,36.50
2019-05-20T18:36:04.172Z,38.02
2019-05-20T18:38:38.288Z,37.50
2019-05-20T18:41:27.964Z,40.20
2019-05-20T18:43:58.205Z,40.43
2019-05-20T18:46:28.242Z,41.13
2019-05-20T18:48:58.567Z,40.17
2019-05-20T18:51:28.794Z,39.23
2019-05-20T18:53:59.247Z,43.68
2019-05-20T18:56:29.453Z,43.25
2019-05-20T18:58:59.764Z,39.18
2019-05-20T19:01:29.774Z,41.90
2019-05-20T19:04:00.017Z,39.00
2019-05-20T19:06:31.678Z,40.20
2019-05-20T19:09:02.289Z,41.17
2019-05-20T19:11:34.451Z,41.28
2019-05-20T19:14:08.139Z,41.55
2019-05-20T19:16:36.984Z,42.20
2019-05-20T19:19:07.393Z,40.60
2019-05-20T19:21:37.612Z,41.23
2019-05-20T19:24:07.895Z,45.60
2019-05-20T19:26:38.201Z,41.48
2019-05-20T19:29:08.729Z,42.70
2019-05-20T19:31:38.966Z,43.08
2019-05-20T19:34:09.667Z,43.55
2019-05-20T19:36:40.050Z,43.28
2019-05-20T19:39:10.126Z,42.75
2019-05-20T19:41:41.970Z,42.60
2019-05-20T19:44:13.466Z,42.90
2019-05-20T19:46:44.634Z,42.85
2019-05-20T19:49:14.796Z,40.73
2019-05-20T19:51:45.151Z,40.75
2019-05-20T19:54:15.576Z,41.68
2019-05-20T19:56:46.237Z,40.23
2019-05-20T19:59:16.669Z,41.00
2019-05-20T20:01:47.210Z,40.63
2019-05-20T20:04:17.985Z,41.37
2019-05-20T20:06:50.582Z,42.70
2019-05-20T20:09:21.236Z,41.25
2019-05-20T20:11:51.705Z,42.27
2019-05-20T20:14:21.850Z,43.13
2019-05-20T20:16:52.035Z,44.85
2019-05-20T20:19:22.087Z,44.45
2019-05-20T20:21:52.324Z,42.45
2019-05-20T20:24:22.752Z,43.13
2019-05-20T20:26:53.196Z,44.90
2019-05-20T20:29:23.170Z,44.18
2019-05-20T20:31:53.450Z,43.55
2019-05-20T20:34:23.668Z,46.25
2019-05-20T20:36:54.219Z,46.10
2019-05-20T20:39:24.508Z,41.80
2019-05-20T20:41:54.863Z,42.15
2019-05-20T20:44:25.392Z,46.23
2019-05-20T20:46:57.406Z,44.70
2019-05-20T20:49:28.411Z,42.77
2019-05-20T20:51:59.235Z,46.33
2019-05-20T20:54:29.611Z,43.48
2019-05-20T20:56:59.897Z,41.15
2019-05-20T20:59:30.406Z,42.78
2019-05-20T21:02:00.713Z,45.63
2019-05-20T21:04:31.311Z,42.48
2019-05-20T21:07:01.698Z,43.73
2019-05-20T21:09:31.980Z,42.98
2019-05-20T21:12:02.280Z,43.38
2019-05-20T21:14:32.861Z,43.80
2019-05-20T21:17:04.526Z,42.10
2019-05-20T21:19:34.938Z,43.05
2019-05-20T21:22:05.183Z,44.35
2019-05-20T21:24:35.134Z,44.60
2019-05-20T21:27:05.496Z,44.88
2019-05-20T21:29:36.538Z,41.08
2019-05-20T21:32:06.766Z,40.88
2019-05-20T21:34:42.432Z,40.25
2019-05-20T21:37:12.656Z,41.42
2019-05-20T21:39:42.580Z,41.33
2019-05-20T21:42:12.819Z,44.48
2019-05-20T21:44:49.212Z,39.65
2019-05-20T21:47:19.164Z,41.20
2019-05-20T21:49:49.177Z,40.48
2019-05-20T21:52:19.409Z,39.92
2019-05-20T21:54:49.746Z,40.48
2019-05-20T21:57:19.993Z,41.60
2019-05-20T21:59:51.104Z,38.75
2019-05-20T22:02:21.181Z,37.88
2019-05-20T22:04:51.490Z,40.83
2019-05-20T22:07:21.494Z,38.58
2019-05-20T22:09:52.426Z,37.98
2019-05-20T22:12:23.340Z,38.33
2019-05-20T22:14:53.542Z,36.73
2019-05-20T22:17:23.842Z,42.08
2019-05-20T22:19:54.016Z,40.48
2019-05-20T22:22:31.728Z,37.40
2019-05-20T22:25:01.874Z,39.08
2019-05-20T22:27:32.780Z,39.58
2019-05-20T22:30:02.716Z,37.70
2019-05-20T22:32:33.019Z,35.65
2019-05-20T22:35:04.063Z,32.53
2019-05-20T22:37:34.326Z,28.27
2019-05-20T22:40:06.311Z,29.15
2019-05-20T22:42:36.573Z,27.80
2019-05-20T22:45:06.694Z,24.82
2019-05-20T22:47:36.792Z,23.25
2019-05-20T22:50:07.840Z,23.60
2019-05-20T22:52:38.969Z,24.52
2019-05-20T22:55:09.760Z,25.50
2019-05-20T22:57:39.860Z,26.80
2019-05-20T23:00:10.243Z,26.62
2019-05-20T23:02:42.136Z,30.85
2019-05-20T23:05:12.412Z,30.60
2019-05-20T23:07:42.240Z,32.80
2019-05-20T23:10:12.679Z,32.60
2019-05-20T23:12:42.917Z,33.55
2019-05-20T23:15:12.942Z,33.42
2019-05-20T23:17:42.884Z,32.35
2019-05-20T23:20:13.136Z,33.90
2019-05-20T23:22:43.276Z,33.53
2019-05-20T23:25:13.534Z,33.92
2019-05-20T23:27:43.676Z,35.08
2019-05-20T23:30:14.014Z,36.70
2019-05-20T23:32:44.241Z,37.17
2019-05-20T23:35:14.512Z,38.05
2019-05-20T23:37:44.506Z,38.58
2019-05-20T23:40:14.789Z,39.98
2019-05-20T23:42:45.841Z,39.75
2019-05-20T23:45:16.019Z,42.55
2019-05-20T23:47:46.239Z,39.13
2019-05-20T23:50:16.490Z,38.38
2019-05-20T23:52:46.645Z,41.53
2019-05-20T23:55:16.684Z,40.90
2019-05-20T23:57:46.608Z,39.27
